createdAt,value
2023-01-29T00:02:40.079Z,58.12
2023-01-29T00:07:42.745Z,58.55
2023-01-29T00:12:45.312Z,58.28
2023-01-29T00:17:48.470Z,58.03
2023-01-29T00:22:51.515Z,57.96
2023-01-29T00:27:54.672Z,57.52
2023-01-29T00:32:58.003Z,57.93
2023-01-29T00:38:02.347Z,58.25
2023-01-29T00:43:23.338Z,58.39
2023-01-29T00:48:26.105Z,58.28
2023-01-29T00:53:29.388Z,58.15
2023-01-29T00:58:36.001Z,58.46
2023-01-29T01:03:42.391Z,58.35
2023-01-29T01:09:04.064Z,58.31
2023-01-29T01:14:07.033Z,58.49
2023-01-29T01:19:10.115Z,58.26
2023-01-29T01:24:13.682Z,58.00
2023-01-29T01:29:16.422Z,57.90
2023-01-29T01:34:20.617Z,58.27
2023-01-29T01:39:24.023Z,57.70
2023-01-29T01:44:55.050Z,58.25
2023-01-29T01:50:04.218Z,58.07
2023-01-29T01:55:09.368Z,57.85
2023-01-29T02:00:16.011Z,58.07
2023-01-29T02:05:37.697Z,58.52
2023-01-29T02:10:47.185Z,58.23
2023-01-29T02:15:50.074Z,58.70
2023-01-29T02:21:15.573Z,58.15
2023-01-29T02:26:50.511Z,58.25
2023-01-29T02:32:17.556Z,57.96
2023-01-29T02:37:32.060Z,58.48
2023-01-29T02:42:45.303Z,57.85
2023-01-29T02:47:50.981Z,57.80
2023-01-29T02:53:03.739Z,58.07
2023-01-29T02:58:26.068Z,57.85
2023-01-29T03:03:35.089Z,57.87
2023-01-29T03:08:43.314Z,57.63
2023-01-29T03:13:55.434Z,57.88
2023-01-29T03:19:06.274Z,57.63
2023-01-29T03:24:29.992Z,57.52
2023-01-29T03:29:55.160Z,57.80
2023-01-29T03:35:05.155Z,58.09
2023-01-29T03:40:10.612Z,57.96
2023-01-29T03:45:28.556Z,58.01
2023-01-29T03:50:53.224Z,57.87
2023-01-29T03:55:59.989Z,58.59
2023-01-29T04:01:20.397Z,58.69
2023-01-29T04:06:30.654Z,58.86
2023-01-29T04:11:45.515Z,58.62
2023-01-29T04:16:54.700Z,58.85
2023-01-29T04:22:24.795Z,59.01
2023-01-29T04:27:32.125Z,59.20
2023-01-29T04:33:08.580Z,59.21
2023-01-29T04:38:34.465Z,59.60
2023-01-29T04:43:46.259Z,59.46
2023-01-29T04:49:39.322Z,59.49
2023-01-29T04:55:03.748Z,59.52
2023-01-29T05:00:36.353Z,58.98
2023-01-29T05:05:42.846Z,58.84
2023-01-29T05:10:50.746Z,59.21
2023-01-29T05:16:05.932Z,58.91
2023-01-29T05:21:09.856Z,58.44
2023-01-29T05:26:30.749Z,57.97
2023-01-29T05:31:33.367Z,57.27
2023-01-29T05:36:36.159Z,57.20
2023-01-29T05:41:38.988Z,56.74
2023-01-29T05:46:41.785Z,56.55
2023-01-29T05:51:44.882Z,56.45
2023-01-29T05:56:47.596Z,56.28
2023-01-29T06:01:50.407Z,55.94
2023-01-29T06:06:53.155Z,55.64
2023-01-29T06:11:55.960Z,55.71
2023-01-29T06:16:58.786Z,55.49
2023-01-29T06:22:01.425Z,55.71
2023-01-29T06:27:04.307Z,55.84
2023-01-29T06:32:07.542Z,55.17
2023-01-29T06:37:10.668Z,55.20
2023-01-29T06:42:14.231Z,54.89
2023-01-29T06:47:16.910Z,54.80
2023-01-29T06:52:19.868Z,54.30
2023-01-29T06:57:22.742Z,54.42
2023-01-29T07:02:25.401Z,54.11
2023-01-29T07:07:28.009Z,53.71
2023-01-29T07:12:30.686Z,52.94
2023-01-29T07:17:33.367Z,51.95
2023-01-29T07:22:36.328Z,50.95
2023-01-29T07:27:39.326Z,49.97
2023-01-29T07:32:42.152Z,49.67
2023-01-29T07:37:44.931Z,50.14
2023-01-29T07:42:47.695Z,49.64
2023-01-29T07:47:54.526Z,48.66
2023-01-29T07:52:57.391Z,48.18
2023-01-29T07:58:02.175Z,48.22
2023-01-29T08:03:14.067Z,47.38
2023-01-29T08:08:17.347Z,46.57
2023-01-29T08:13:20.516Z,46.63
2023-01-29T08:18:23.247Z,48.09
2023-01-29T08:23:26.144Z,48.26
2023-01-29T08:28:29.193Z,48.38
2023-01-29T08:33:39.627Z,48.90
2023-01-29T08:38:47.112Z,48.78
2023-01-29T08:43:49.924Z,48.56
2023-01-29T08:48:52.770Z,48.60
2023-01-29T08:53:55.560Z,48.65
2023-01-29T08:58:59.727Z,49.15
2023-01-29T09:04:02.557Z,49.41
2023-01-29T09:09:05.311Z,49.69
2023-01-29T09:14:10.110Z,50.10
2023-01-29T09:19:14.766Z,50.26
2023-01-29T09:24:17.674Z,50.68
2023-01-29T09:29:20.329Z,50.07
2023-01-29T09:34:24.546Z,50.81
2023-01-29T09:39:29.889Z,51.24
2023-01-29T09:45:04.969Z,51.23
2023-01-29T09:50:15.480Z,50.99
2023-01-29T09:55:32.922Z,50.90
2023-01-29T10:01:02.299Z,50.28
2023-01-29T10:06:08.049Z,49.91
2023-01-29T10:11:22.584Z,50.22
2023-01-29T10:16:45.381Z,49.90
2023-01-29T10:22:06.316Z,50.11
2023-01-29T10:27:20.330Z,49.67
2023-01-29T10:32:27.288Z,49.31
2023-01-29T10:37:46.563Z,49.19
2023-01-29T10:42:57.750Z,48.69
2023-01-29T10:48:28.602Z,49.05
2023-01-29T10:54:16.546Z,48.48
2023-01-29T10:59:31.213Z,49.28
2023-01-29T11:04:35.647Z,49.39
2023-01-29T11:09:52.426Z,48.67
2023-01-29T11:15:15.190Z,49.44
2023-01-29T11:20:36.536Z,49.53
2023-01-29T11:25:39.658Z,49.55
2023-01-29T11:30:43.638Z,48.73
2023-01-29T11:35:47.490Z,48.72
2023-01-29T11:40:50.310Z,49.26
2023-01-29T11:45:58.316Z,48.94
2023-01-29T11:51:01.715Z,48.85
2023-01-29T11:56:26.883Z,48.87
2023-01-29T12:01:39.083Z,47.82
2023-01-29T12:06:49.239Z,48.48
2023-01-29T12:11:52.931Z,48.41
2023-01-29T12:17:04.747Z,49.05
2023-01-29T12:22:36.362Z,49.14
2023-01-29T12:28:22.828Z,48.72
2023-01-29T12:33:49.229Z,49.75
2023-01-29T12:38:54.091Z,50.50
2023-01-29T12:44:04.960Z,49.79
2023-01-29T12:49:16.865Z,50.52
2023-01-29T12:54:48.799Z,50.69
2023-01-29T13:00:07.105Z,50.53
2023-01-29T13:05:38.879Z,51.11
2023-01-29T13:10:46.187Z,51.47
2023-01-29T13:15:50.570Z,51.10
2023-01-29T13:20:53.851Z,51.55
2023-01-29T13:25:57.826Z,52.53
2023-01-29T13:31:41.430Z,52.79
2023-01-29T13:36:47.361Z,53.63
2023-01-29T13:41:51.504Z,54.45
2023-01-29T13:47:03.243Z,53.72
2023-01-29T13:52:30.782Z,54.44
2023-01-29T13:57:56.281Z,54.09
2023-01-29T14:03:01.824Z,53.35
2023-01-29T14:08:27.300Z,53.76
2023-01-29T14:13:36.194Z,54.41
2023-01-29T14:19:01.526Z,54.58
2023-01-29T14:24:19.325Z,54.83
2023-01-29T14:29:34.791Z,54.63
2023-01-29T14:34:52.373Z,55.31
2023-01-29T14:40:20.187Z,55.08
2023-01-29T14:45:35.939Z,55.43
2023-01-29T14:50:41.212Z,55.94
2023-01-29T14:55:49.655Z,56.38
2023-01-29T15:00:57.077Z,56.04
2023-01-29T15:06:01.347Z,56.05
2023-01-29T15:11:30.851Z,56.10
2023-01-29T15:16:59.158Z,56.06
2023-01-29T15:22:23.760Z,56.94
2023-01-29T15:27:26.801Z,57.08
2023-01-29T15:32:37.874Z,57.37
2023-01-29T15:37:40.568Z,58.28
2023-01-29T15:42:47.127Z,58.97
2023-01-29T15:47:51.017Z,59.58
2023-01-29T15:52:55.677Z,59.55
2023-01-29T15:57:59.486Z,59.94
2023-01-29T16:03:16.119Z,61.17
2023-01-29T16:08:21.144Z,61.41
2023-01-29T16:13:30.841Z,61.14
2023-01-29T16:18:41.064Z,61.30
2023-01-29T16:24:02.909Z,61.50
2023-01-29T16:29:09.727Z,61.89
2023-01-29T16:34:29.716Z,62.23
2023-01-29T16:39:39.857Z,62.48
2023-01-29T16:45:02.952Z,62.12
2023-01-29T16:50:40.511Z,62.32
2023-01-29T16:55:47.205Z,62.16
2023-01-29T17:00:57.038Z,61.73
2023-01-29T17:06:08.749Z,62.12
2023-01-29T17:11:23.588Z,61.87
2023-01-29T17:16:32.745Z,62.44
2023-01-29T17:21:35.588Z,62.29
2023-01-29T17:26:39.462Z,62.09
2023-01-29T17:31:43.886Z,62.20
2023-01-29T17:36:47.986Z,62.00
2023-01-29T17:41:53.918Z,62.39
2023-01-29T17:46:58.078Z,62.04
2023-01-29T17:52:01.159Z,62.39
2023-01-29T17:57:04.122Z,63.19
2023-01-29T18:02:08.849Z,62.94
2023-01-29T18:07:35.302Z,62.84
2023-01-29T18:12:38.170Z,62.79
2023-01-29T18:17:41.859Z,62.61
2023-01-29T18:22:44.967Z,62.70
2023-01-29T18:27:47.821Z,62.92
2023-01-29T18:32:50.609Z,62.61
2023-01-29T18:37:53.334Z,63.12
2023-01-29T18:42:56.121Z,63.01
2023-01-29T18:47:59.271Z,63.15
2023-01-29T18:53:04.516Z,62.92
2023-01-29T18:58:26.761Z,62.84
2023-01-29T19:03:30.158Z,62.81
2023-01-29T19:08:35.174Z,63.34
2023-01-29T19:13:38.373Z,62.86
2023-01-29T19:18:41.931Z,63.49
2023-01-29T19:23:45.232Z,63.18
2023-01-29T19:28:48.346Z,63.06
2023-01-29T19:33:51.529Z,62.64
2023-01-29T19:38:54.288Z,62.35
2023-01-29T19:43:57.520Z,62.83
2023-01-29T19:49:01.113Z,63.04
2023-01-29T19:54:04.351Z,62.51
2023-01-29T19:59:07.625Z,62.50
2023-01-29T20:04:10.714Z,62.81
2023-01-29T20:09:13.799Z,62.57
2023-01-29T20:14:16.631Z,63.07
2023-01-29T20:19:20.878Z,62.88
2023-01-29T20:24:24.836Z,62.83
2023-01-29T20:29:27.550Z,63.22
2023-01-29T20:34:31.483Z,63.13
2023-01-29T20:39:34.468Z,62.89
2023-01-29T20:44:37.473Z,62.89
2023-01-29T20:49:40.372Z,62.38
2023-01-29T20:54:44.896Z,62.03
2023-01-29T20:59:48.271Z,61.92
2023-01-29T21:04:51.118Z,62.09
2023-01-29T21:09:53.846Z,62.52
2023-01-29T21:14:56.698Z,62.40
2023-01-29T21:19:59.703Z,62.13
2023-01-29T21:25:02.746Z,62.38
2023-01-29T21:30:06.953Z,62.10
2023-01-29T21:35:10.511Z,62.44
2023-01-29T21:40:13.791Z,62.28
2023-01-29T21:45:16.937Z,62.21
2023-01-29T21:50:19.986Z,61.96
2023-01-29T21:55:22.938Z,61.92
2023-01-29T22:00:29.428Z,61.85
2023-01-29T22:05:34.340Z,61.90
2023-01-29T22:10:37.847Z,61.63
2023-01-29T22:15:40.918Z,61.93
2023-01-29T22:20:44.630Z,61.46
2023-01-29T22:25:47.319Z,61.48
2023-01-29T22:30:50.202Z,61.78
2023-01-29T22:35:56.638Z,61.69
2023-01-29T22:41:01.234Z,61.97
2023-01-29T22:46:10.564Z,62.09
2023-01-29T22:51:14.048Z,61.61
2023-01-29T22:56:18.695Z,61.38
2023-01-29T23:01:24.016Z,61.45
2023-01-29T23:06:27.014Z,60.91
2023-01-29T23:11:29.854Z,61.38
2023-01-29T23:16:32.528Z,61.82
2023-01-29T23:21:35.335Z,62.06
2023-01-29T23:26:56.590Z,62.46
2023-01-29T23:31:59.251Z,62.15
2023-01-29T23:37:01.912Z,62.13
2023-01-29T23:42:05.079Z,61.18
2023-01-29T23:47:08.819Z,61.53
2023-01-29T23:52:11.615Z,61.03
2023-01-29T23:57:14.654Z,61.05
